sensor_id;sensor_type;location;lat;lon;timestamp;temperature;humidity
75262;DHT22;63859;51.064;4.580;2024-03-02T00:02:14;6.80;99.90
75262;DHT22;63859;51.064;4.580;2024-03-02T00:04:40;6.80;99.90
75262;DHT22;63859;51.064;4.580;2024-03-02T00:07:09;6.80;99.90
75262;DHT22;63859;51.064;4.580;2024-03-02T00:09:35;6.80;99.90
75262;DHT22;63859;51.064;4.580;2024-03-02T00:12:02;6.80;99.90
75262;DHT22;63859;51.064;4.580;2024-03-02T00:14:29;6.80;99.90
75262;DHT22;63859;51.064;4.580;2024-03-02T00:16:56;6.80;99.90
75262;DHT22;63859;51.064;4.580;2024-03-02T00:19:22;6.80;99.90
75262;DHT22;63859;51.064;4.580;2024-03-02T00:21:47;6.70;99.90
75262;DHT22;63859;51.064;4.580;2024-03-02T00:24:33;6.70;99.90
75262;DHT22;63859;51.064;4.580;2024-03-02T00:26:59;6.70;99.90
75262;DHT22;63859;51.064;4.580;2024-03-02T00:29:25;6.70;99.90
75262;DHT22;63859;51.064;4.580;2024-03-02T00:31:52;6.70;99.90
75262;DHT22;63859;51.064;4.580;2024-03-02T00:34:18;6.70;99.90
75262;DHT22;63859;51.064;4.580;2024-03-02T00:36:45;6.70;99.90
75262;DHT22;63859;51.064;4.580;2024-03-02T00:39:12;6.70;99.90
75262;DHT22;63859;51.064;4.580;2024-03-02T00:41:41;6.70;99.90
75262;DHT22;63859;51.064;4.580;2024-03-02T00:44:12;6.70;99.90
75262;DHT22;63859;51.064;4.580;2024-03-02T00:46:39;6.70;99.90
75262;DHT22;63859;51.064;4.580;2024-03-02T00:49:24;6.60;99.90
75262;DHT22;63859;51.064;4.580;2024-03-02T00:51:52;6.60;99.90
75262;DHT22;63859;51.064;4.580;2024-03-02T00:54:23;6.60;99.90
75262;DHT22;63859;51.064;4.580;2024-03-02T00:56:50;6.60;99.90
75262;DHT22;63859;51.064;4.580;2024-03-02T00:59:16;6.60;99.90
75262;DHT22;63859;51.064;4.580;2024-03-02T01:01:42;6.60;99.90
75262;DHT22;63859;51.064;4.580;2024-03-02T01:04:08;6.60;99.90
75262;DHT22;63859;51.064;4.580;2024-03-02T01:06:35;6.60;99.90
75262;DHT22;63859;51.064;4.580;2024-03-02T01:09:01;6.60;99.90
75262;DHT22;63859;51.064;4.580;2024-03-02T01:11:28;6.60;99.90
75262;DHT22;63859;51.064;4.580;2024-03-02T01:13:53;6.60;99.90
75262;DHT22;63859;51.064;4.580;2024-03-02T01:16:19;6.60;99.90
75262;DHT22;63859;51.064;4.580;2024-03-02T01:18:45;6.60;99.90
75262;DHT22;63859;51.064;4.580;2024-03-02T01:21:11;6.70;99.90
75262;DHT22;63859;51.064;4.580;2024-03-02T01:23:37;6.70;99.90
75262;DHT22;63859;51.064;4.580;2024-03-02T01:26:03;6.70;99.90
75262;DHT22;63859;51.064;4.580;2024-03-02T01:28:29;6.70;99.90
75262;DHT22;63859;51.064;4.580;2024-03-02T01:30:54;6.60;99.90
75262;DHT22;63859;51.064;4.580;2024-03-02T01:38:13;6.60;99.90
75262;DHT22;63859;51.064;4.580;2024-03-02T01:40:39;6.60;99.90
75262;DHT22;63859;51.064;4.580;2024-03-02T01:43:05;6.70;99.90
75262;DHT22;63859;51.064;4.580;2024-03-02T01:45:31;6.70;99.90
75262;DHT22;63859;51.064;4.580;2024-03-02T01:47:57;6.70;99.90
75262;DHT22;63859;51.064;4.580;2024-03-02T01:50:27;6.60;99.90
75262;DHT22;63859;51.064;4.580;2024-03-02T01:52:55;6.60;99.90
75262;DHT22;63859;51.064;4.580;2024-03-02T01:55:21;6.70;99.90
75262;DHT22;63859;51.064;4.580;2024-03-02T01:57:47;6.60;99.90
75262;DHT22;63859;51.064;4.580;2024-03-02T02:00:14;6.60;99.90
75262;DHT22;63859;51.064;4.580;2024-03-02T02:02:40;6.60;99.90
75262;DHT22;63859;51.064;4.580;2024-03-02T02:05:06;6.60;99.90
75262;DHT22;63859;51.064;4.580;2024-03-02T02:07:32;6.60;99.90
75262;DHT22;63859;51.064;4.580;2024-03-02T02:09:58;6.50;99.90
75262;DHT22;63859;51.064;4.580;2024-03-02T02:12:24;6.60;99.90
75262;DHT22;63859;51.064;4.580;2024-03-02T02:17:16;6.50;99.90
75262;DHT22;63859;51.064;4.580;2024-03-02T02:19:42;6.50;99.90
75262;DHT22;63859;51.064;4.580;2024-03-02T02:22:09;6.50;99.90
75262;DHT22;63859;51.064;4.580;2024-03-02T02:24:35;6.50;99.90
75262;DHT22;63859;51.064;4.580;2024-03-02T02:27:00;6.50;99.90
75262;DHT22;63859;51.064;4.580;2024-03-02T02:29:26;6.50;99.90
75262;DHT22;63859;51.064;4.580;2024-03-02T02:31:52;6.50;99.90
75262;DHT22;63859;51.064;4.580;2024-03-02T02:34:18;6.50;99.90
75262;DHT22;63859;51.064;4.580;2024-03-02T02:36:43;6.50;99.90
75262;DHT22;63859;51.064;4.580;2024-03-02T02:39:13;6.50;99.90
75262;DHT22;63859;51.064;4.580;2024-03-02T02:41:39;6.50;99.90
75262;DHT22;63859;51.064;4.580;2024-03-02T02:46:31;6.60;99.90
75262;DHT22;63859;51.064;4.580;2024-03-02T02:48:56;6.60;99.90
75262;DHT22;63859;51.064;4.580;2024-03-02T02:51:22;6.60;99.90
75262;DHT22;63859;51.064;4.580;2024-03-02T02:53:49;6.60;99.90
75262;DHT22;63859;51.064;4.580;2024-03-02T02:56:14;6.60;99.90
75262;DHT22;63859;51.064;4.580;2024-03-02T02:58:40;6.60;99.90
75262;DHT22;63859;51.064;4.580;2024-03-02T03:01:07;6.60;99.90
75262;DHT22;63859;51.064;4.580;2024-03-02T03:03:33;6.70;99.90
75262;DHT22;63859;51.064;4.580;2024-03-02T03:05:59;6.70;99.90
75262;DHT22;63859;51.064;4.580;2024-03-02T03:08:24;6.70;99.90
75262;DHT22;63859;51.064;4.580;2024-03-02T03:10:50;6.70;99.90
75262;DHT22;63859;51.064;4.580;2024-03-02T03:13:16;6.70;99.90
75262;DHT22;63859;51.064;4.580;2024-03-02T03:15:42;6.70;99.90
75262;DHT22;63859;51.064;4.580;2024-03-02T03:18:07;6.60;99.90
75262;DHT22;63859;51.064;4.580;2024-03-02T03:20:33;6.60;99.90
75262;DHT22;63859;51.064;4.580;2024-03-02T03:22:59;6.60;99.90
75262;DHT22;63859;51.064;4.580;2024-03-02T03:25:25;6.60;99.90
75262;DHT22;63859;51.064;4.580;2024-03-02T03:27:51;6.60;99.90
75262;DHT22;63859;51.064;4.580;2024-03-02T03:30:19;6.60;99.90
75262;DHT22;63859;51.064;4.580;2024-03-02T03:32:45;6.60;99.90
75262;DHT22;63859;51.064;4.580;2024-03-02T03:35:11;6.50;99.90
75262;DHT22;63859;51.064;4.580;2024-03-02T03:37:38;6.50;99.90
75262;DHT22;63859;51.064;4.580;2024-03-02T03:40:04;6.40;99.90
75262;DHT22;63859;51.064;4.580;2024-03-02T03:42:36;6.40;99.90
75262;DHT22;63859;51.064;4.580;2024-03-02T03:45:02;6.40;99.90
75262;DHT22;63859;51.064;4.580;2024-03-02T03:47:28;6.40;99.90
75262;DHT22;63859;51.064;4.580;2024-03-02T03:49:53;6.30;99.90
75262;DHT22;63859;51.064;4.580;2024-03-02T03:52:19;6.30;99.90
75262;DHT22;63859;51.064;4.580;2024-03-02T03:54:45;6.30;99.90
75262;DHT22;63859;51.064;4.580;2024-03-02T03:57:10;6.30;99.90
75262;DHT22;63859;51.064;4.580;2024-03-02T03:59:36;6.20;99.90
75262;DHT22;63859;51.064;4.580;2024-03-02T04:02:05;6.20;99.90
75262;DHT22;63859;51.064;4.580;2024-03-02T04:04:30;6.20;99.90
75262;DHT22;63859;51.064;4.580;2024-03-02T04:06:56;6.20;99.90
75262;DHT22;63859;51.064;4.580;2024-03-02T04:09:21;6.20;99.90
75262;DHT22;63859;51.064;4.580;2024-03-02T04:11:47;6.20;99.90
75262;DHT22;63859;51.064;4.580;2024-03-02T04:14:13;6.20;99.90
75262;DHT22;63859;51.064;4.580;2024-03-02T04:16:39;6.10;99.90
75262;DHT22;63859;51.064;4.580;2024-03-02T04:19:04;6.10;99.90
75262;DHT22;63859;51.064;4.580;2024-03-02T04:21:30;6.10;99.90
75262;DHT22;63859;51.064;4.580;2024-03-02T04:23:56;6.10;99.90
75262;DHT22;63859;51.064;4.580;2024-03-02T04:26:28;6.10;99.90
75262;DHT22;63859;51.064;4.580;2024-03-02T04:28:54;6.10;99.90
75262;DHT22;63859;51.064;4.580;2024-03-02T04:31:20;6.00;99.90
75262;DHT22;63859;51.064;4.580;2024-03-02T04:33:46;6.00;99.90
75262;DHT22;63859;51.064;4.580;2024-03-02T04:36:11;6.00;99.90
75262;DHT22;63859;51.064;4.580;2024-03-02T04:38:38;6.00;99.90
75262;DHT22;63859;51.064;4.580;2024-03-02T04:41:04;6.00;99.90
75262;DHT22;63859;51.064;4.580;2024-03-02T04:43:31;5.90;99.90
75262;DHT22;63859;51.064;4.580;2024-03-02T04:45:58;5.90;99.90
75262;DHT22;63859;51.064;4.580;2024-03-02T04:48:24;5.90;99.90
75262;DHT22;63859;51.064;4.580;2024-03-02T04:53:16;5.90;99.90
75262;DHT22;63859;51.064;4.580;2024-03-02T04:55:42;5.90;99.90
75262;DHT22;63859;51.064;4.580;2024-03-02T04:58:07;5.90;99.90
75262;DHT22;63859;51.064;4.580;2024-03-02T05:00:34;5.90;99.90
75262;DHT22;63859;51.064;4.580;2024-03-02T05:02:59;5.90;99.90
75262;DHT22;63859;51.064;4.580;2024-03-02T05:05:25;5.90;99.90
75262;DHT22;63859;51.064;4.580;2024-03-02T05:07:51;5.90;99.90
75262;DHT22;63859;51.064;4.580;2024-03-02T05:10:17;5.90;99.90
75262;DHT22;63859;51.064;4.580;2024-03-02T05:12:43;5.90;99.90
75262;DHT22;63859;51.064;4.580;2024-03-02T05:17:40;5.90;99.90
75262;DHT22;63859;51.064;4.580;2024-03-02T05:20:08;5.90;99.90
75262;DHT22;63859;51.064;4.580;2024-03-02T05:22:34;5.90;99.90
75262;DHT22;63859;51.064;4.580;2024-03-02T05:25:01;5.90;99.90
75262;DHT22;63859;51.064;4.580;2024-03-02T05:29:55;5.80;99.90
75262;DHT22;63859;51.064;4.580;2024-03-02T05:34:47;5.70;99.90
75262;DHT22;63859;51.064;4.580;2024-03-02T05:37:13;5.70;99.90
75262;DHT22;63859;51.064;4.580;2024-03-02T05:39:39;5.70;99.90
75262;DHT22;63859;51.064;4.580;2024-03-02T05:42:04;5.70;99.90
75262;DHT22;63859;51.064;4.580;2024-03-02T05:44:30;5.60;99.90
75262;DHT22;63859;51.064;4.580;2024-03-02T05:46:56;5.60;99.90
75262;DHT22;63859;51.064;4.580;2024-03-02T05:49:21;5.60;99.90
75262;DHT22;63859;51.064;4.580;2024-03-02T05:51:47;5.60;99.90
75262;DHT22;63859;51.064;4.580;2024-03-02T05:54:13;5.50;99.90
75262;DHT22;63859;51.064;4.580;2024-03-02T05:56:39;5.50;99.90
75262;DHT22;63859;51.064;4.580;2024-03-02T05:59:04;5.60;99.90
75262;DHT22;63859;51.064;4.580;2024-03-02T06:01:39;5.50;99.90
75262;DHT22;63859;51.064;4.580;2024-03-02T06:04:04;5.50;99.90
75262;DHT22;63859;51.064;4.580;2024-03-02T06:06:30;5.40;99.90
75262;DHT22;63859;51.064;4.580;2024-03-02T06:08:57;5.40;99.90
75262;DHT22;63859;51.064;4.580;2024-03-02T06:11:24;5.30;99.90
75262;DHT22;63859;51.064;4.580;2024-03-02T06:13:50;5.30;99.90
75262;DHT22;63859;51.064;4.580;2024-03-02T06:16:15;5.30;99.90
75262;DHT22;63859;51.064;4.580;2024-03-02T06:18:41;5.30;99.90
75262;DHT22;63859;51.064;4.580;2024-03-02T06:21:07;5.30;99.90
75262;DHT22;63859;51.064;4.580;2024-03-02T06:23:33;5.30;99.90
75262;DHT22;63859;51.064;4.580;2024-03-02T06:26:00;5.30;99.90
75262;DHT22;63859;51.064;4.580;2024-03-02T06:28:26;5.30;99.90
75262;DHT22;63859;51.064;4.580;2024-03-02T06:30:52;5.40;99.90
75262;DHT22;63859;51.064;4.580;2024-03-02T06:33:17;5.30;99.90
75262;DHT22;63859;51.064;4.580;2024-03-02T06:35:43;5.30;99.90
75262;DHT22;63859;51.064;4.580;2024-03-02T06:38:09;5.40;99.90
75262;DHT22;63859;51.064;4.580;2024-03-02T06:40:34;5.40;99.90
75262;DHT22;63859;51.064;4.580;2024-03-02T06:43:00;5.40;99.90
75262;DHT22;63859;51.064;4.580;2024-03-02T06:45:26;5.40;99.90
75262;DHT22;63859;51.064;4.580;2024-03-02T06:47:52;5.40;99.90
75262;DHT22;63859;51.064;4.580;2024-03-02T06:50:17;5.40;99.90
75262;DHT22;63859;51.064;4.580;2024-03-02T06:52:43;5.40;99.90
75262;DHT22;63859;51.064;4.580;2024-03-02T06:55:09;5.40;99.90
75262;DHT22;63859;51.064;4.580;2024-03-02T06:57:35;5.40;99.90
75262;DHT22;63859;51.064;4.580;2024-03-02T07:00:00;5.40;99.90
75262;DHT22;63859;51.064;4.580;2024-03-02T07:02:27;5.40;99.90
75262;DHT22;63859;51.064;4.580;2024-03-02T07:04:53;5.40;99.90
75262;DHT22;63859;51.064;4.580;2024-03-02T07:07:19;5.40;99.90
75262;DHT22;63859;51.064;4.580;2024-03-02T07:09:46;5.40;99.90
75262;DHT22;63859;51.064;4.580;2024-03-02T07:12:11;5.40;99.90
75262;DHT22;63859;51.064;4.580;2024-03-02T07:14:37;5.50;99.90
75262;DHT22;63859;51.064;4.580;2024-03-02T07:17:37;5.50;99.90
75262;DHT22;63859;51.064;4.580;2024-03-02T07:20:03;5.60;99.90
75262;DHT22;63859;51.064;4.580;2024-03-02T07:22:29;5.60;99.90
75262;DHT22;63859;51.064;4.580;2024-03-02T07:24:55;5.60;99.90
75262;DHT22;63859;51.064;4.580;2024-03-02T07:27:21;5.60;99.90
75262;DHT22;63859;51.064;4.580;2024-03-02T07:29:47;5.70;99.90
75262;DHT22;63859;51.064;4.580;2024-03-02T07:32:12;5.70;99.90
75262;DHT22;63859;51.064;4.580;2024-03-02T07:34:38;5.70;99.90
75262;DHT22;63859;51.064;4.580;2024-03-02T07:37:04;5.80;99.90
75262;DHT22;63859;51.064;4.580;2024-03-02T07:39:30;5.80;99.90
75262;DHT22;63859;51.064;4.580;2024-03-02T07:41:56;5.90;99.90
75262;DHT22;63859;51.064;4.580;2024-03-02T07:44:22;5.90;99.90
75262;DHT22;63859;51.064;4.580;2024-03-02T07:49:20;6.00;99.90
75262;DHT22;63859;51.064;4.580;2024-03-02T07:51:46;6.10;99.90
75262;DHT22;63859;51.064;4.580;2024-03-02T07:54:12;6.20;99.90
75262;DHT22;63859;51.064;4.580;2024-03-02T07:56:37;6.20;99.90
75262;DHT22;63859;51.064;4.580;2024-03-02T07:59:03;6.30;99.90
75262;DHT22;63859;51.064;4.580;2024-03-02T08:01:32;6.30;99.90
75262;DHT22;63859;51.064;4.580;2024-03-02T08:04:00;6.40;99.90
75262;DHT22;63859;51.064;4.580;2024-03-02T08:09:00;6.50;99.90
75262;DHT22;63859;51.064;4.580;2024-03-02T08:11:26;6.50;99.90
75262;DHT22;63859;51.064;4.580;2024-03-02T08:13:52;6.60;99.90
75262;DHT22;63859;51.064;4.580;2024-03-02T08:16:21;6.60;99.90
75262;DHT22;63859;51.064;4.580;2024-03-02T08:18:48;6.70;99.90
75262;DHT22;63859;51.064;4.580;2024-03-02T08:21:14;6.70;99.90
75262;DHT22;63859;51.064;4.580;2024-03-02T08:23:40;6.80;99.90
75262;DHT22;63859;51.064;4.580;2024-03-02T08:28:34;6.90;99.90
75262;DHT22;63859;51.064;4.580;2024-03-02T08:31:00;6.90;99.90
75262;DHT22;63859;51.064;4.580;2024-03-02T08:33:25;7.00;99.90
75262;DHT22;63859;51.064;4.580;2024-03-02T08:35:51;7.00;99.90
75262;DHT22;63859;51.064;4.580;2024-03-02T08:38:17;7.10;99.90
75262;DHT22;63859;51.064;4.580;2024-03-02T08:40:44;7.10;99.90
75262;DHT22;63859;51.064;4.580;2024-03-02T08:43:09;7.20;99.90
75262;DHT22;63859;51.064;4.580;2024-03-02T08:45:35;7.30;99.90
75262;DHT22;63859;51.064;4.580;2024-03-02T08:48:01;7.30;99.90
75262;DHT22;63859;51.064;4.580;2024-03-02T08:50:27;7.40;99.90
75262;DHT22;63859;51.064;4.580;2024-03-02T08:52:52;7.50;99.90
75262;DHT22;63859;51.064;4.580;2024-03-02T08:55:18;7.60;99.90
75262;DHT22;63859;51.064;4.580;2024-03-02T08:57:44;7.70;99.90
75262;DHT22;63859;51.064;4.580;2024-03-02T09:00:10;7.80;99.90
75262;DHT22;63859;51.064;4.580;2024-03-02T09:02:35;7.80;99.90
75262;DHT22;63859;51.064;4.580;2024-03-02T09:05:01;7.90;99.90
75262;DHT22;63859;51.064;4.580;2024-03-02T09:07:27;8.00;99.90
75262;DHT22;63859;51.064;4.580;2024-03-02T09:09:53;8.10;99.90
75262;DHT22;63859;51.064;4.580;2024-03-02T09:14:45;8.20;99.90
75262;DHT22;63859;51.064;4.580;2024-03-02T09:17:12;8.30;99.90
75262;DHT22;63859;51.064;4.580;2024-03-02T09:19:39;8.40;99.90
75262;DHT22;63859;51.064;4.580;2024-03-02T09:22:04;8.40;99.90
75262;DHT22;63859;51.064;4.580;2024-03-02T09:24:31;8.50;99.90
75262;DHT22;63859;51.064;4.580;2024-03-02T09:26:58;8.60;99.90
75262;DHT22;63859;51.064;4.580;2024-03-02T09:29:24;8.60;99.90
75262;DHT22;63859;51.064;4.580;2024-03-02T09:31:49;8.70;99.90
75262;DHT22;63859;51.064;4.580;2024-03-02T09:34:16;8.80;99.90
75262;DHT22;63859;51.064;4.580;2024-03-02T09:36:42;8.80;99.90
75262;DHT22;63859;51.064;4.580;2024-03-02T09:39:08;9.00;99.90
75262;DHT22;63859;51.064;4.580;2024-03-02T09:41:38;9.00;99.90
75262;DHT22;63859;51.064;4.580;2024-03-02T09:44:05;9.00;99.90
75262;DHT22;63859;51.064;4.580;2024-03-02T09:46:31;9.10;99.90
75262;DHT22;63859;51.064;4.580;2024-03-02T09:48:56;9.10;99.90
75262;DHT22;63859;51.064;4.580;2024-03-02T09:51:23;9.20;99.90
75262;DHT22;63859;51.064;4.580;2024-03-02T09:53:49;9.30;99.90
75262;DHT22;63859;51.064;4.580;2024-03-02T09:56:15;9.50;99.90
75262;DHT22;63859;51.064;4.580;2024-03-02T09:58:41;9.60;99.90
75262;DHT22;63859;51.064;4.580;2024-03-02T10:01:07;9.80;99.90
75262;DHT22;63859;51.064;4.580;2024-03-02T10:03:36;9.90;99.90
75262;DHT22;63859;51.064;4.580;2024-03-02T10:06:27;10.00;99.90
75262;DHT22;63859;51.064;4.580;2024-03-02T10:08:53;10.00;99.90
75262;DHT22;63859;51.064;4.580;2024-03-02T10:11:33;10.00;99.90
75262;DHT22;63859;51.064;4.580;2024-03-02T10:14:12;10.10;99.90
75262;DHT22;63859;51.064;4.580;2024-03-02T10:21:42;10.20;99.90
75262;DHT22;63859;51.064;4.580;2024-03-02T10:24:08;10.30;99.90
75262;DHT22;63859;51.064;4.580;2024-03-02T10:26:34;10.40;99.90
75262;DHT22;63859;51.064;4.580;2024-03-02T10:28:59;10.50;99.90
75262;DHT22;63859;51.064;4.580;2024-03-02T10:33:57;10.70;99.90
75262;DHT22;63859;51.064;4.580;2024-03-02T10:36:23;10.60;99.90
75262;DHT22;63859;51.064;4.580;2024-03-02T10:38:51;10.40;99.90
75262;DHT22;63859;51.064;4.580;2024-03-02T10:41:23;10.40;99.90
75262;DHT22;63859;51.064;4.580;2024-03-02T10:43:52;10.50;99.90
75262;DHT22;63859;51.064;4.580;2024-03-02T10:46:21;10.50;99.90
75262;DHT22;63859;51.064;4.580;2024-03-02T10:48:48;10.50;99.90
75262;DHT22;63859;51.064;4.580;2024-03-02T10:51:15;10.60;99.90
75262;DHT22;63859;51.064;4.580;2024-03-02T10:53:40;10.70;99.90
75262;DHT22;63859;51.064;4.580;2024-03-02T10:56:07;10.70;99.90
75262;DHT22;63859;51.064;4.580;2024-03-02T10:58:35;10.80;99.90
75262;DHT22;63859;51.064;4.580;2024-03-02T11:01:06;10.70;99.90
75262;DHT22;63859;51.064;4.580;2024-03-02T11:03:35;10.70;99.90
75262;DHT22;63859;51.064;4.580;2024-03-02T11:06:07;10.60;99.90
75262;DHT22;63859;51.064;4.580;2024-03-02T11:08:34;10.80;99.90
75262;DHT22;63859;51.064;4.580;2024-03-02T11:11:07;10.90;99.90
75262;DHT22;63859;51.064;4.580;2024-03-02T11:13:37;11.20;99.90
75262;DHT22;63859;51.064;4.580;2024-03-02T11:16:12;11.20;99.90
75262;DHT22;63859;51.064;4.580;2024-03-02T11:18:41;11.50;99.90
75262;DHT22;63859;51.064;4.580;2024-03-02T11:21:07;11.50;99.90
75262;DHT22;63859;51.064;4.580;2024-03-02T11:23:33;11.70;99.90
75262;DHT22;63859;51.064;4.580;2024-03-02T11:26:19;11.80;99.90
75262;DHT22;63859;51.064;4.580;2024-03-02T11:28:45;12.00;99.90
75262;DHT22;63859;51.064;4.580;2024-03-02T11:31:11;12.10;99.90
75262;DHT22;63859;51.064;4.580;2024-03-02T11:33:36;12.00;99.90
75262;DHT22;63859;51.064;4.580;2024-03-02T11:36:02;11.90;99.90
75262;DHT22;63859;51.064;4.580;2024-03-02T11:38:30;11.90;99.90
75262;DHT22;63859;51.064;4.580;2024-03-02T11:40:57;11.70;99.90
75262;DHT22;63859;51.064;4.580;2024-03-02T11:43:22;12.00;99.90
75262;DHT22;63859;51.064;4.580;2024-03-02T11:45:57;12.10;99.90
75262;DHT22;63859;51.064;4.580;2024-03-02T11:48:24;12.10;99.90
75262;DHT22;63859;51.064;4.580;2024-03-02T11:50:50;12.00;99.90
75262;DHT22;63859;51.064;4.580;2024-03-02T11:53:17;12.00;99.90
75262;DHT22;63859;51.064;4.580;2024-03-02T11:55:44;12.00;99.90
75262;DHT22;63859;51.064;4.580;2024-03-02T11:58:12;12.00;99.90
75262;DHT22;63859;51.064;4.580;2024-03-02T12:00:38;11.90;99.90
75262;DHT22;63859;51.064;4.580;2024-03-02T12:03:08;11.80;99.90
75262;DHT22;63859;51.064;4.580;2024-03-02T12:05:34;11.90;99.90
75262;DHT22;63859;51.064;4.580;2024-03-02T12:08:11;12.30;99.90
75262;DHT22;63859;51.064;4.580;2024-03-02T12:10:37;12.40;99.90
75262;DHT22;63859;51.064;4.580;2024-03-02T12:13:05;12.60;99.90
75262;DHT22;63859;51.064;4.580;2024-03-02T12:15:34;12.70;99.90
75262;DHT22;63859;51.064;4.580;2024-03-02T12:18:01;12.80;99.90
75262;DHT22;63859;51.064;4.580;2024-03-02T12:20:29;12.70;99.90
75262;DHT22;63859;51.064;4.580;2024-03-02T12:27:50;12.90;99.90
75262;DHT22;63859;51.064;4.580;2024-03-02T12:30:17;13.10;99.90
75262;DHT22;63859;51.064;4.580;2024-03-02T12:32:47;13.00;99.90
75262;DHT22;63859;51.064;4.580;2024-03-02T12:35:14;12.90;99.90
75262;DHT22;63859;51.064;4.580;2024-03-02T12:40:13;12.60;99.90
75262;DHT22;63859;51.064;4.580;2024-03-02T12:42:39;12.70;99.90
75262;DHT22;63859;51.064;4.580;2024-03-02T12:45:09;12.70;99.90
75262;DHT22;63859;51.064;4.580;2024-03-02T12:47:35;12.70;99.90
75262;DHT22;63859;51.064;4.580;2024-03-02T12:50:01;12.60;99.90
75262;DHT22;63859;51.064;4.580;2024-03-02T12:54:54;12.60;99.90
75262;DHT22;63859;51.064;4.580;2024-03-02T12:57:25;12.60;99.90
75262;DHT22;63859;51.064;4.580;2024-03-02T12:59:52;12.50;99.90
75262;DHT22;63859;51.064;4.580;2024-03-02T13:02:18;12.40;99.90
75262;DHT22;63859;51.064;4.580;2024-03-02T13:04:44;12.40;99.90
75262;DHT22;63859;51.064;4.580;2024-03-02T13:07:11;12.40;99.90
75262;DHT22;63859;51.064;4.580;2024-03-02T13:09:39;12.40;99.90
75262;DHT22;63859;51.064;4.580;2024-03-02T13:12:05;12.50;99.90
75262;DHT22;63859;51.064;4.580;2024-03-02T13:14:35;12.80;99.90
75262;DHT22;63859;51.064;4.580;2024-03-02T13:17:01;13.30;99.90
75262;DHT22;63859;51.064;4.580;2024-03-02T13:19:29;13.80;99.90
75262;DHT22;63859;51.064;4.580;2024-03-02T13:21:56;13.90;99.90
75262;DHT22;63859;51.064;4.580;2024-03-02T13:24:22;13.90;99.90
75262;DHT22;63859;51.064;4.580;2024-03-02T13:26:51;13.90;99.90
75262;DHT22;63859;51.064;4.580;2024-03-02T13:29:21;14.30;99.90
75262;DHT22;63859;51.064;4.580;2024-03-02T13:31:47;14.10;99.90
75262;DHT22;63859;51.064;4.580;2024-03-02T13:34:12;13.80;99.90
75262;DHT22;63859;51.064;4.580;2024-03-02T13:36:38;13.60;99.90
75262;DHT22;63859;51.064;4.580;2024-03-02T13:39:04;13.40;99.90
75262;DHT22;63859;51.064;4.580;2024-03-02T13:41:36;13.20;99.90
75262;DHT22;63859;51.064;4.580;2024-03-02T13:44:02;13.10;99.90
75262;DHT22;63859;51.064;4.580;2024-03-02T13:46:28;13.00;99.90
75262;DHT22;63859;51.064;4.580;2024-03-02T13:48:54;12.90;99.90
75262;DHT22;63859;51.064;4.580;2024-03-02T13:51:21;12.80;99.90
75262;DHT22;63859;51.064;4.580;2024-03-02T13:53:46;12.70;99.90
75262;DHT22;63859;51.064;4.580;2024-03-02T13:56:12;12.60;99.90
75262;DHT22;63859;51.064;4.580;2024-03-02T13:58:38;12.50;99.90
75262;DHT22;63859;51.064;4.580;2024-03-02T14:01:04;12.50;99.90
75262;DHT22;63859;51.064;4.580;2024-03-02T14:03:30;12.50;99.90
75262;DHT22;63859;51.064;4.580;2024-03-02T14:08:22;12.60;99.90
75262;DHT22;63859;51.064;4.580;2024-03-02T14:10:48;12.50;99.90
75262;DHT22;63859;51.064;4.580;2024-03-02T14:13:14;12.60;99.90
75262;DHT22;63859;51.064;4.580;2024-03-02T14:15:41;12.60;99.90
75262;DHT22;63859;51.064;4.580;2024-03-02T14:18:07;12.60;99.90
75262;DHT22;63859;51.064;4.580;2024-03-02T14:20:36;12.60;99.90
75262;DHT22;63859;51.064;4.580;2024-03-02T14:23:03;12.60;99.90
75262;DHT22;63859;51.064;4.580;2024-03-02T14:25:29;12.60;99.90
75262;DHT22;63859;51.064;4.580;2024-03-02T14:27:58;12.60;99.90
75262;DHT22;63859;51.064;4.580;2024-03-02T14:30:24;12.50;99.90
75262;DHT22;63859;51.064;4.580;2024-03-02T14:32:50;12.50;99.90
75262;DHT22;63859;51.064;4.580;2024-03-02T14:35:16;12.60;99.90
75262;DHT22;63859;51.064;4.580;2024-03-02T14:37:42;12.60;99.90
75262;DHT22;63859;51.064;4.580;2024-03-02T14:40:08;12.60;99.90
75262;DHT22;63859;51.064;4.580;2024-03-02T14:42:35;12.70;99.90
75262;DHT22;63859;51.064;4.580;2024-03-02T14:45:01;12.80;99.90
75262;DHT22;63859;51.064;4.580;2024-03-02T14:47:32;12.80;99.90
75262;DHT22;63859;51.064;4.580;2024-03-02T14:49:59;12.90;99.90
75262;DHT22;63859;51.064;4.580;2024-03-02T14:52:25;12.80;99.90
75262;DHT22;63859;51.064;4.580;2024-03-02T14:57:16;12.80;99.90
75262;DHT22;63859;51.064;4.580;2024-03-02T15:04:35;12.70;99.90
75262;DHT22;63859;51.064;4.580;2024-03-02T15:07:00;12.70;99.90
75262;DHT22;63859;51.064;4.580;2024-03-02T15:09:26;12.60;99.90
75262;DHT22;63859;51.064;4.580;2024-03-02T15:14:18;12.60;99.90
75262;DHT22;63859;51.064;4.580;2024-03-02T15:16:43;12.50;99.90
75262;DHT22;63859;51.064;4.580;2024-03-02T15:19:09;12.50;99.90
75262;DHT22;63859;51.064;4.580;2024-03-02T15:21:35;12.40;99.90
75262;DHT22;63859;51.064;4.580;2024-03-02T15:24:01;12.40;99.90
75262;DHT22;63859;51.064;4.580;2024-03-02T15:26:26;12.30;99.90
75262;DHT22;63859;51.064;4.580;2024-03-02T15:31:20;12.20;99.90
75262;DHT22;63859;51.064;4.580;2024-03-02T15:33:46;12.10;99.90
75262;DHT22;63859;51.064;4.580;2024-03-02T15:36:12;12.10;99.90
75262;DHT22;63859;51.064;4.580;2024-03-02T15:38:37;12.00;99.90
75262;DHT22;63859;51.064;4.580;2024-03-02T15:41:04;12.00;99.90
75262;DHT22;63859;51.064;4.580;2024-03-02T15:43:30;11.90;99.90
75262;DHT22;63859;51.064;4.580;2024-03-02T15:45:57;11.90;99.90
75262;DHT22;63859;51.064;4.580;2024-03-02T15:48:22;11.80;99.90
75262;DHT22;63859;51.064;4.580;2024-03-02T15:50:49;11.80;99.90
75262;DHT22;63859;51.064;4.580;2024-03-02T15:55:43;11.80;99.90
75262;DHT22;63859;51.064;4.580;2024-03-02T15:58:09;11.70;99.90
75262;DHT22;63859;51.064;4.580;2024-03-02T16:00:35;11.70;99.90
75262;DHT22;63859;51.064;4.580;2024-03-02T16:03:01;11.70;99.90
75262;DHT22;63859;51.064;4.580;2024-03-02T16:05:27;11.70;99.90
75262;DHT22;63859;51.064;4.580;2024-03-02T16:07:52;11.70;99.90
75262;DHT22;63859;51.064;4.580;2024-03-02T16:10:18;11.70;99.90
75262;DHT22;63859;51.064;4.580;2024-03-02T16:12:44;11.70;99.90
75262;DHT22;63859;51.064;4.580;2024-03-02T16:15:09;11.70;99.90
75262;DHT22;63859;51.064;4.580;2024-03-02T16:17:35;-5.80;75.50
75262;DHT22;63859;51.064;4.580;2024-03-02T16:20:02;11.70;99.90
75262;DHT22;63859;51.064;4.580;2024-03-02T16:22:34;11.60;99.90
75262;DHT22;63859;51.064;4.580;2024-03-02T16:25:00;11.60;99.90
75262;DHT22;63859;51.064;4.580;2024-03-02T16:27:25;11.60;99.90
75262;DHT22;63859;51.064;4.580;2024-03-02T16:29:53;11.60;99.90
75262;DHT22;63859;51.064;4.580;2024-03-02T16:32:20;11.60;99.90
75262;DHT22;63859;51.064;4.580;2024-03-02T16:34:46;11.60;99.90
75262;DHT22;63859;51.064;4.580;2024-03-02T16:37:11;11.50;99.90
75262;DHT22;63859;51.064;4.580;2024-03-02T16:39:37;11.50;99.90
75262;DHT22;63859;51.064;4.580;2024-03-02T16:42:03;11.50;99.90